Aeroporto :
LOGIN :

Iscrizione | Disclaimer

   EN    FR    IT 

 










Sommario :    VFR   VFR Marginale   IFR   IFR Intensivo   IFR Molto Intensivo
Visibilità : 
Base nubi : 
>= 8 km
>= 3000ft
5 / 8 km
1000 / 3000 ft
1500m / 5 km
500 / 1000 ft
800 / 1500m
200 / 500 ft
< 800m
< 200 ft
Simboli :   Temporali  Nebbia  Neve Forte  Precipitazioni Forti  Vento > 20 kt
SIGMETs :   Varie  Temporali  Ghiacco  Turbolenza  Onda orograficha  Ceneri Vulcaniche






- Altitudine del aeroporto : 302 ft
- Codice IATA : CGN


EDDK - Cologne Bonn

ULTIMO METAR :
  • 191650Z AUTO 15007KT //// R14L/P2000N R24/P2000N // ///////// 13/11 Q1006 NOSIG

METARs OBSOLETI :
  • 191620Z 16005KT 150V210 9999 -RA SCT039 13/12 Q1006 RERA NOSIG
  • 191550Z 19007KT 9999 -RA SCT039 13/11 Q1006 RERA NOSIG
  • 191520Z 17007KT 9999 -RA SCT039 13/12 Q1006 RERA NOSIG
  • 191450Z 20010KT 150V220 4500 RA FEW012 SCT029 BKN055 13/12 Q1006 TEMPO 6000 NSW
  • 191420Z 14005KT 9999 -RA FEW025 SCT032 BKN055 14/13 Q1005 RERA TEMPO RA

TAF TAF EDDK
Valido dal 19 a 12 ore il 20 a 18 ore UTC


191100Z 1912/2018 14009KT 9999 BKN030
PROB30
TEMPO 1912/1919 RA
BECMG 1919/1921 VRB03KT
TEMPO 2000/2018 RA
BECMG 2005/2008 BKN012
PROB40
TEMPO 2005/2018 3500 RADZ BKN006



MetMap, La meteo Aeronautica in un colpo d'occhio ! - Copyright ORBIFLY Dicembre 2007 - Disclaimer

ORBIFLY MET'MAP TEAM :

Programmazione e sviluppo : Alexandra Zaïnal
Concezione e sviluppo : Baudouin d'Aumeries
Co-Programmazione e sviluppo : Marc-Olivier Méhu
Supporto tecnico e logistico : Manuel Goepfert
Aiuto per la traduzione : Arnaldo La Scala

Contatto : metmap@orbifly.com




FONTI E CREDITI :

   NOAA